createdAt,value
2018-12-30T00:00:52.423Z,33.60
2018-12-30T00:03:19.897Z,31.97
2018-12-30T00:05:47.730Z,33.20
2018-12-30T00:08:15.652Z,30.83
2018-12-30T00:10:43.140Z,30.93
2018-12-30T00:13:10.702Z,30.03
2018-12-30T00:15:38.100Z,32.67
2018-12-30T00:18:06.030Z,29.93
2018-12-30T00:20:33.980Z,30.80
2018-12-30T00:23:01.421Z,31.93
2018-12-30T00:25:28.912Z,32.63
2018-12-30T00:27:56.387Z,34.23
2018-12-30T00:30:23.948Z,33.47
2018-12-30T00:32:51.419Z,33.73
2018-12-30T00:35:18.867Z,34.43
2018-12-30T00:37:47.465Z,35.07
2018-12-30T00:40:14.954Z,33.13
2018-12-30T00:42:42.462Z,32.67
2018-12-30T00:45:10.024Z,31.33
2018-12-30T00:47:37.372Z,31.57
2018-12-30T00:50:05.034Z,31.37
2018-12-30T00:52:32.456Z,32.10
2018-12-30T00:54:59.886Z,31.67
2018-12-30T00:57:27.684Z,28.77
2018-12-30T00:59:55.168Z,29.67
2018-12-30T01:02:22.633Z,29.03
2018-12-30T01:04:50.182Z,29.30
2018-12-30T01:07:17.746Z,27.30
2018-12-30T01:09:45.284Z,26.70
2018-12-30T01:12:13.147Z,27.57
2018-12-30T01:14:40.631Z,26.07
2018-12-30T01:17:10.808Z,25.30
2018-12-30T01:19:38.587Z,25.73
2018-12-30T01:22:06.041Z,24.77
2018-12-30T01:24:34.967Z,23.43
2018-12-30T01:27:02.900Z,23.83
2018-12-30T01:29:30.983Z,23.27
2018-12-30T01:31:58.375Z,22.97
2018-12-30T01:34:26.020Z,23.07
2018-12-30T01:36:53.500Z,23.47
2018-12-30T01:39:22.390Z,23.47
2018-12-30T01:41:49.978Z,23.07
2018-12-30T01:44:17.991Z,22.77
2018-12-30T01:46:45.448Z,22.43
2018-12-30T01:49:13.028Z,20.77
2018-12-30T01:51:40.598Z,21.77
2018-12-30T01:54:08.126Z,20.30
2018-12-30T01:56:35.580Z,21.20
2018-12-30T01:59:03.170Z,20.63
2018-12-30T02:01:30.644Z,19.93
2018-12-30T02:03:58.206Z,19.20
2018-12-30T02:06:27.074Z,21.20
2018-12-30T02:08:54.898Z,20.03
2018-12-30T02:11:22.398Z,21.07
2018-12-30T02:13:49.866Z,20.10
2018-12-30T02:16:17.452Z,19.27
2018-12-30T02:18:45.048Z,21.33
2018-12-30T02:21:12.450Z,18.70
2018-12-30T02:23:40.157Z,19.90
2018-12-30T02:26:07.624Z,18.73
2018-12-30T02:28:35.221Z,20.33
2018-12-30T02:31:03.710Z,19.53
2018-12-30T02:33:31.319Z,19.10
2018-12-30T02:35:59.894Z,18.87
2018-12-30T02:38:27.380Z,19.50
2018-12-30T02:40:54.930Z,20.70
2018-12-30T02:43:23.606Z,21.37
2018-12-30T02:45:51.081Z,20.37
2018-12-30T02:48:18.680Z,19.33
2018-12-30T02:50:46.166Z,19.00
2018-12-30T02:53:13.657Z,20.30
2018-12-30T02:55:41.198Z,20.07
2018-12-30T02:58:08.736Z,21.67
2018-12-30T03:00:36.218Z,19.83
2018-12-30T03:03:04.000Z,19.37
2018-12-30T03:05:31.488Z,19.77
2018-12-30T03:07:58.971Z,20.37
2018-12-30T03:10:26.537Z,19.03
2018-12-30T03:12:54.050Z,18.73
2018-12-30T03:15:21.592Z,19.73
2018-12-30T03:17:49.136Z,18.57
2018-12-30T03:20:16.634Z,18.47
2018-12-30T03:22:44.067Z,18.57
2018-12-30T03:25:11.585Z,18.67
2018-12-30T03:27:40.263Z,16.20
2018-12-30T03:30:08.136Z,18.10
2018-12-30T03:32:35.730Z,17.37
2018-12-30T03:35:03.221Z,18.63
2018-12-30T03:37:30.766Z,16.47
2018-12-30T03:39:58.213Z,16.73
2018-12-30T03:42:25.747Z,16.70
2018-12-30T03:44:53.151Z,16.67
2018-12-30T03:47:20.659Z,17.57
2018-12-30T03:49:48.200Z,17.73
2018-12-30T03:52:15.606Z,16.90
2018-12-30T03:54:43.132Z,16.60
2018-12-30T03:57:10.605Z,17.80
2018-12-30T03:59:38.120Z,15.50
2018-12-30T04:02:05.685Z,17.53
2018-12-30T04:04:33.176Z,17.73
2018-12-30T04:07:00.662Z,18.47
2018-12-30T04:09:28.302Z,17.70
2018-12-30T04:11:55.846Z,16.30
2018-12-30T04:14:23.248Z,15.73
2018-12-30T04:16:50.728Z,16.30
2018-12-30T04:19:18.295Z,18.20
2018-12-30T04:21:45.811Z,18.53
2018-12-30T04:24:13.293Z,18.97
2018-12-30T04:26:40.679Z,19.60
2018-12-30T04:29:08.165Z,21.47
2018-12-30T04:31:35.750Z,21.17
2018-12-30T04:34:03.464Z,20.93
2018-12-30T04:36:31.032Z,20.93
2018-12-30T04:38:58.577Z,20.60
2018-12-30T04:41:26.042Z,20.67
2018-12-30T04:43:53.540Z,21.00
2018-12-30T04:46:21.004Z,20.40
2018-12-30T04:48:48.483Z,17.73
2018-12-30T04:51:16.052Z,17.10
2018-12-30T04:53:43.534Z,18.40
2018-12-30T04:56:11.588Z,15.70
2018-12-30T04:58:39.067Z,15.67
2018-12-30T05:01:06.536Z,16.83
2018-12-30T05:03:33.914Z,15.43
2018-12-30T05:06:01.433Z,16.20
2018-12-30T05:08:28.998Z,16.30
2018-12-30T05:10:56.554Z,15.93
2018-12-30T05:13:24.024Z,16.30
2018-12-30T05:15:53.129Z,16.10
2018-12-30T05:18:20.616Z,16.30
2018-12-30T05:20:48.100Z,18.43
2018-12-30T05:23:17.226Z,16.50
2018-12-30T05:25:44.637Z,16.67
2018-12-30T05:28:12.126Z,16.73
2018-12-30T05:30:39.802Z,15.13
2018-12-30T05:33:07.211Z,14.80
2018-12-30T05:35:34.753Z,16.00
2018-12-30T05:38:02.670Z,15.67
2018-12-30T05:40:30.140Z,15.00
2018-12-30T05:42:57.551Z,15.40
2018-12-30T05:45:24.958Z,16.27
2018-12-30T05:47:52.414Z,15.47
2018-12-30T05:50:19.934Z,14.37
2018-12-30T05:52:47.449Z,14.87
2018-12-30T05:55:17.168Z,15.87
2018-12-30T05:57:44.660Z,13.60
2018-12-30T06:00:12.229Z,14.63
2018-12-30T06:02:39.867Z,15.23
2018-12-30T06:05:07.359Z,16.47
2018-12-30T06:07:34.920Z,15.07
2018-12-30T06:10:02.428Z,16.97
2018-12-30T06:12:29.913Z,16.50
2018-12-30T06:14:57.408Z,16.93
2018-12-30T06:17:24.897Z,17.37
2018-12-30T06:19:52.520Z,19.70
2018-12-30T06:22:20.050Z,20.20
2018-12-30T06:24:47.542Z,22.40
2018-12-30T06:27:17.050Z,23.03
2018-12-30T06:29:44.566Z,23.90
2018-12-30T06:32:12.126Z,23.77
2018-12-30T06:34:39.719Z,23.40
2018-12-30T06:37:07.178Z,23.90
2018-12-30T06:39:34.585Z,24.73
2018-12-30T06:42:02.095Z,23.50
2018-12-30T06:44:29.629Z,23.83
2018-12-30T06:46:57.096Z,22.30
2018-12-30T06:49:24.504Z,23.67
2018-12-30T06:51:52.114Z,25.33
2018-12-30T06:54:19.536Z,22.90
2018-12-30T06:56:47.012Z,22.70
2018-12-30T06:59:14.638Z,22.10
2018-12-30T07:01:42.040Z,22.60
2018-12-30T07:04:09.444Z,21.10
2018-12-30T07:06:38.368Z,22.57
2018-12-30T07:09:05.976Z,22.47
2018-12-30T07:11:35.248Z,20.97
2018-12-30T07:14:02.793Z,20.40
2018-12-30T07:16:30.272Z,19.53
2018-12-30T07:18:58.778Z,21.07
2018-12-30T07:21:26.394Z,21.03
2018-12-30T07:23:53.873Z,21.20
2018-12-30T07:26:23.202Z,20.10
2018-12-30T07:28:50.605Z,19.30
2018-12-30T07:31:19.710Z,20.60
2018-12-30T07:33:47.208Z,19.23
2018-12-30T07:36:14.722Z,19.87
2018-12-30T07:38:42.198Z,19.50
2018-12-30T07:41:09.688Z,19.53
2018-12-30T07:43:37.233Z,21.23
2018-12-30T07:46:04.728Z,20.73
2018-12-30T07:48:32.111Z,21.07
2018-12-30T07:50:59.572Z,19.47
2018-12-30T07:53:26.991Z,20.37
2018-12-30T07:55:54.479Z,21.13
2018-12-30T07:58:21.898Z,20.50
2018-12-30T08:00:49.360Z,19.67
2018-12-30T08:03:16.759Z,20.27
2018-12-30T08:05:44.446Z,18.43
2018-12-30T08:08:11.775Z,15.23
2018-12-30T08:10:39.145Z,15.17
2018-12-30T08:13:06.694Z,16.23
2018-12-30T08:15:34.106Z,14.93
2018-12-30T08:18:01.639Z,15.57
2018-12-30T08:20:30.734Z,16.63
2018-12-30T08:22:58.347Z,16.80
2018-12-30T08:25:25.911Z,19.23
2018-12-30T08:27:53.355Z,17.60
2018-12-30T08:30:20.790Z,18.43
2018-12-30T08:32:48.304Z,17.07
2018-12-30T08:35:15.809Z,17.77
2018-12-30T08:37:43.135Z,18.30
2018-12-30T08:40:10.511Z,17.97
2018-12-30T08:42:38.071Z,18.80
2018-12-30T08:45:05.655Z,16.67
2018-12-30T08:47:33.219Z,18.17
2018-12-30T08:50:00.692Z,17.57
2018-12-30T08:52:28.158Z,19.17
2018-12-30T08:54:55.678Z,17.63
2018-12-30T08:57:23.061Z,16.23
2018-12-30T08:59:50.614Z,18.53
2018-12-30T09:02:17.959Z,16.97
2018-12-30T09:04:45.387Z,17.83
2018-12-30T09:07:12.766Z,17.73
2018-12-30T09:09:40.229Z,17.80
2018-12-30T09:12:09.396Z,16.90
2018-12-30T09:14:36.880Z,19.60
2018-12-30T09:17:04.351Z,20.67
2018-12-30T09:19:33.447Z,19.77
2018-12-30T09:22:00.940Z,21.53
2018-12-30T09:24:28.398Z,21.17
2018-12-30T09:26:55.914Z,22.50
2018-12-30T09:29:23.384Z,23.10
2018-12-30T09:31:50.872Z,25.13
2018-12-30T09:34:18.335Z,25.03
2018-12-30T09:36:45.855Z,26.83
2018-12-30T09:39:13.250Z,26.87
2018-12-30T09:41:40.717Z,27.13
2018-12-30T09:44:08.146Z,26.03
2018-12-30T09:46:35.546Z,27.60
2018-12-30T09:49:03.027Z,27.57
2018-12-30T09:51:30.478Z,25.73
2018-12-30T09:53:57.972Z,24.37
2018-12-30T09:56:25.404Z,24.67
2018-12-30T09:58:54.534Z,23.73
2018-12-30T10:01:21.948Z,23.37
2018-12-30T10:03:49.418Z,23.17
2018-12-30T10:06:16.810Z,22.50
2018-12-30T10:08:44.156Z,21.37
2018-12-30T10:11:11.640Z,20.47
2018-12-30T10:13:39.255Z,21.03
2018-12-30T10:16:07.883Z,23.50
2018-12-30T10:18:35.362Z,23.80
2018-12-30T10:21:02.909Z,24.67
2018-12-30T10:23:30.407Z,26.83
2018-12-30T10:26:01.435Z,26.63
2018-12-30T10:28:32.027Z,27.03
2018-12-30T10:30:59.542Z,26.53
2018-12-30T10:33:27.076Z,25.43
2018-12-30T10:35:54.641Z,23.23
2018-12-30T10:38:22.255Z,24.80
2018-12-30T10:40:49.862Z,22.10
2018-12-30T10:43:17.564Z,21.73
2018-12-30T10:45:45.156Z,23.13
2018-12-30T10:48:14.075Z,22.17
2018-12-30T10:50:46.952Z,22.00
2018-12-30T10:53:17.386Z,21.80
2018-12-30T10:55:49.183Z,19.63
2018-12-30T10:58:20.389Z,19.87
2018-12-30T11:00:47.870Z,20.70
2018-12-30T11:03:17.757Z,21.43
2018-12-30T11:05:47.892Z,21.77
2018-12-30T11:08:15.354Z,23.10
2018-12-30T11:10:42.810Z,24.40
2018-12-30T11:13:10.183Z,24.93
2018-12-30T11:15:37.602Z,30.80
2018-12-30T11:18:05.062Z,33.57
2018-12-30T11:20:32.521Z,29.93
2018-12-30T11:23:00.080Z,31.67
2018-12-30T11:25:27.481Z,29.87
2018-12-30T11:27:54.985Z,30.03
2018-12-30T11:30:22.351Z,28.00
2018-12-30T11:32:49.873Z,27.33
2018-12-30T11:35:17.343Z,28.13
2018-12-30T11:37:44.862Z,28.63
2018-12-30T11:40:12.346Z,29.30
2018-12-30T11:42:39.832Z,31.40
2018-12-30T11:45:07.230Z,28.77
2018-12-30T11:47:34.746Z,28.53
2018-12-30T11:50:02.305Z,28.47
2018-12-30T11:52:29.859Z,27.73
2018-12-30T11:54:57.348Z,27.40
2018-12-30T11:57:24.743Z,28.00
2018-12-30T11:59:52.102Z,28.10
2018-12-30T12:02:24.092Z,26.67
2018-12-30T12:04:48.695Z,30.40
2018-12-30T12:07:19.164Z,27.23
2018-12-30T12:09:46.551Z,30.20
2018-12-30T12:12:14.195Z,31.63
2018-12-30T12:14:42.036Z,28.83
2018-12-30T12:17:09.543Z,29.97
2018-12-30T12:19:37.107Z,31.37
2018-12-30T12:22:05.047Z,31.13
2018-12-30T12:24:32.447Z,33.47
2018-12-30T12:26:59.901Z,32.70
2018-12-30T12:29:28.376Z,28.57
2018-12-30T12:31:55.848Z,25.10
2018-12-30T12:34:23.371Z,25.33
2018-12-30T12:36:50.852Z,22.27
2018-12-30T12:39:18.813Z,25.00
2018-12-30T12:41:46.245Z,22.77
2018-12-30T12:44:13.719Z,23.83
2018-12-30T12:46:41.058Z,25.77
2018-12-30T12:49:08.538Z,25.03
2018-12-30T12:51:35.875Z,27.30
2018-12-30T12:54:03.270Z,29.70
2018-12-30T12:56:30.714Z,28.93
2018-12-30T12:58:58.157Z,27.77
2018-12-30T13:01:25.626Z,27.20
2018-12-30T13:03:53.205Z,32.13
2018-12-30T13:06:21.489Z,29.17
2018-12-30T13:08:48.970Z,28.27
2018-12-30T13:11:18.212Z,26.33
2018-12-30T13:13:48.758Z,27.17
2018-12-30T13:16:16.239Z,27.00
2018-12-30T13:18:43.743Z,26.30
2018-12-30T13:21:11.183Z,25.80
2018-12-30T13:23:38.671Z,26.77
2018-12-30T13:26:06.213Z,26.83
2018-12-30T13:28:34.235Z,29.47
2018-12-30T13:31:01.621Z,27.87
2018-12-30T13:33:29.195Z,31.33
2018-12-30T13:35:56.658Z,29.03
2018-12-30T13:38:28.271Z,30.07
2018-12-30T13:40:53.351Z,27.73
2018-12-30T13:43:20.679Z,28.37
2018-12-30T13:45:48.218Z,29.30
2018-12-30T13:48:15.708Z,29.63
2018-12-30T13:50:43.087Z,28.43
2018-12-30T13:53:12.041Z,27.73
2018-12-30T13:55:39.536Z,28.20
2018-12-30T13:58:07.037Z,28.47
2018-12-30T14:00:34.459Z,26.70
2018-12-30T14:03:02.051Z,26.73
2018-12-30T14:05:29.513Z,26.33
2018-12-30T14:07:57.093Z,25.37
2018-12-30T14:10:24.500Z,27.70
2018-12-30T14:12:51.911Z,26.93
2018-12-30T14:15:19.418Z,25.00
2018-12-30T14:17:46.897Z,23.13
2018-12-30T14:20:14.303Z,24.27
2018-12-30T14:22:41.790Z,22.30
2018-12-30T14:25:11.696Z,22.83
2018-12-30T14:27:39.181Z,24.17
2018-12-30T14:30:07.490Z,25.80
2018-12-30T14:32:36.074Z,29.40
2018-12-30T14:35:05.185Z,25.40
2018-12-30T14:37:32.736Z,28.47
2018-12-30T14:40:00.401Z,25.23
2018-12-30T14:42:28.407Z,24.00
2018-12-30T14:44:55.892Z,23.20
2018-12-30T14:47:26.937Z,23.87
2018-12-30T14:49:54.472Z,22.67
2018-12-30T14:52:21.943Z,22.30
2018-12-30T14:55:03.288Z,21.10
2018-12-30T14:57:25.866Z,20.70
2018-12-30T14:59:53.360Z,25.83
2018-12-30T15:02:20.807Z,27.33
2018-12-30T15:04:48.277Z,22.97
2018-12-30T15:07:17.028Z,23.30
2018-12-30T15:09:44.374Z,23.27
2018-12-30T15:12:11.840Z,22.53
2018-12-30T15:14:39.436Z,16.53
2018-12-30T15:17:06.930Z,11.37
2018-12-30T15:19:34.258Z,7.97
2018-12-30T15:22:01.820Z,7.90
2018-12-30T15:24:29.252Z,6.43
2018-12-30T15:26:56.654Z,5.03
2018-12-30T15:29:24.178Z,4.23
2018-12-30T15:31:51.562Z,4.73
2018-12-30T15:34:19.033Z,8.33
2018-12-30T15:36:46.553Z,9.10
2018-12-30T15:39:14.080Z,10.80
2018-12-30T15:41:41.466Z,11.80
2018-12-30T15:44:08.992Z,13.83
2018-12-30T15:46:36.461Z,15.07
2018-12-30T15:49:03.874Z,11.87
2018-12-30T15:51:32.587Z,12.27
2018-12-30T15:54:00.065Z,14.17
2018-12-30T15:56:27.535Z,16.10
2018-12-30T15:58:55.109Z,12.33
2018-12-30T16:01:22.673Z,12.97
2018-12-30T16:03:50.085Z,11.83
2018-12-30T16:06:17.610Z,14.70
2018-12-30T16:08:45.130Z,11.40
2018-12-30T16:11:19.816Z,13.17
2018-12-30T16:13:46.551Z,11.20
2018-12-30T16:16:15.194Z,9.30
2018-12-30T16:18:42.695Z,10.57
2018-12-30T16:21:10.833Z,8.40
2018-12-30T16:23:38.328Z,6.97
2018-12-30T16:26:05.916Z,9.43
2018-12-30T16:28:33.510Z,11.37
2018-12-30T16:31:01.040Z,9.53
2018-12-30T16:33:28.537Z,12.27
2018-12-30T16:35:56.020Z,7.83
2018-12-30T16:38:23.504Z,8.70
2018-12-30T16:40:50.936Z,8.50
2018-12-30T16:43:20.040Z,9.53
2018-12-30T16:45:47.531Z,9.53
2018-12-30T16:48:17.743Z,11.00
2018-12-30T16:50:45.912Z,9.53
2018-12-30T16:53:13.387Z,8.67
2018-12-30T16:55:45.747Z,11.97
2018-12-30T16:58:12.998Z,7.07
2018-12-30T17:00:42.117Z,8.77
2018-12-30T17:03:11.230Z,11.37
2018-12-30T17:05:38.733Z,15.23
2018-12-30T17:08:07.417Z,10.07
2018-12-30T17:10:35.000Z,10.73
2018-12-30T17:13:03.567Z,10.43
2018-12-30T17:15:31.060Z,9.80
2018-12-30T17:17:58.563Z,11.70
2018-12-30T17:20:25.988Z,10.57
2018-12-30T17:22:53.570Z,9.87
2018-12-30T17:25:21.235Z,12.23
2018-12-30T17:27:48.798Z,10.87
2018-12-30T17:30:16.209Z,15.97
2018-12-30T17:32:43.711Z,14.90
2018-12-30T17:35:11.334Z,18.87
2018-12-30T17:37:38.813Z,19.63
2018-12-30T17:40:07.512Z,20.77
2018-12-30T17:42:35.026Z,18.13
2018-12-30T17:45:02.427Z,16.03
2018-12-30T17:47:29.958Z,22.43
2018-12-30T17:49:57.628Z,20.83
2018-12-30T17:52:26.750Z,25.50
2018-12-30T17:54:54.289Z,46.60
2018-12-30T17:57:22.431Z,36.67
2018-12-30T17:59:52.263Z,39.10
2018-12-30T18:02:19.771Z,25.23
2018-12-30T18:04:47.345Z,16.43
2018-12-30T18:07:14.967Z,23.07
2018-12-30T18:09:42.415Z,15.57
2018-12-30T18:12:10.203Z,17.63
2018-12-30T18:14:37.708Z,11.37
2018-12-30T18:17:05.208Z,14.47
2018-12-30T18:19:32.872Z,13.07
2018-12-30T18:22:00.357Z,11.90
2018-12-30T18:24:29.423Z,12.30
2018-12-30T18:26:58.772Z,13.00
2018-12-30T18:29:27.852Z,14.77
2018-12-30T18:31:55.383Z,14.90
2018-12-30T18:34:23.910Z,15.43
2018-12-30T18:36:51.407Z,16.00
2018-12-30T18:39:25.598Z,14.83
2018-12-30T18:41:52.886Z,13.37
2018-12-30T18:44:20.392Z,13.23
2018-12-30T18:46:47.924Z,20.97
2018-12-30T18:49:17.699Z,20.33
2018-12-30T18:51:46.731Z,20.37
2018-12-30T18:54:14.910Z,21.10
2018-12-30T18:56:42.575Z,13.00
2018-12-30T18:59:11.653Z,11.43
2018-12-30T19:01:41.122Z,8.00
2018-12-30T19:04:14.153Z,23.10
2018-12-30T19:06:43.289Z,13.93
2018-12-30T19:09:12.141Z,18.80
2018-12-30T19:11:44.537Z,14.97
2018-12-30T19:14:14.487Z,13.10
2018-12-30T19:16:43.606Z,9.63
2018-12-30T19:22:03.551Z,10.43
2018-12-30T19:24:31.066Z,7.90
2018-12-30T19:26:58.759Z,8.67
2018-12-30T19:29:31.315Z,6.17
2018-12-30T19:31:58.893Z,7.77
2018-12-30T19:34:29.090Z,7.77
2018-12-30T19:36:58.713Z,16.00
2018-12-30T19:39:26.276Z,15.17
2018-12-30T19:41:58.438Z,9.97
2018-12-30T19:44:30.412Z,13.47
2018-12-30T19:46:57.965Z,15.30
2018-12-30T19:49:25.712Z,8.53
2018-12-30T19:51:53.188Z,10.43
2018-12-30T19:54:20.736Z,11.07
2018-12-30T19:56:49.419Z,10.50
2018-12-30T19:59:17.965Z,7.33
2018-12-30T20:01:45.572Z,9.37
2018-12-30T20:04:14.257Z,10.13
2018-12-30T20:06:41.855Z,14.23
2018-12-30T20:09:09.478Z,8.30
2018-12-30T20:11:36.951Z,8.20
2018-12-30T20:14:04.612Z,11.23
2018-12-30T20:16:32.205Z,7.00
2018-12-30T20:18:59.606Z,9.57
2018-12-30T20:21:27.021Z,10.87
2018-12-30T20:23:54.569Z,12.77
2018-12-30T20:26:29.650Z,8.37
2018-12-30T20:28:51.272Z,8.20
2018-12-30T20:31:24.522Z,8.97
2018-12-30T20:33:51.592Z,10.53
2018-12-30T20:36:19.084Z,11.73
2018-12-30T20:38:48.153Z,9.10
2018-12-30T20:41:15.695Z,10.17
2018-12-30T20:43:43.090Z,11.60
2018-12-30T20:46:10.696Z,12.03
2018-12-30T20:48:39.950Z,10.03
2018-12-30T20:51:07.874Z,10.80
2018-12-30T20:53:35.510Z,12.73
2018-12-30T20:56:03.042Z,12.10
2018-12-30T20:58:30.649Z,12.90
2018-12-30T21:00:58.181Z,12.67
2018-12-30T21:03:28.854Z,10.83
2018-12-30T21:05:56.421Z,10.43
2018-12-30T21:08:24.067Z,9.57
2018-12-30T21:10:51.571Z,9.53
2018-12-30T21:13:19.048Z,11.33
2018-12-30T21:15:46.574Z,14.33
2018-12-30T21:18:14.052Z,10.63
2018-12-30T21:20:41.723Z,13.23
2018-12-30T21:23:09.286Z,13.83
2018-12-30T21:25:36.708Z,13.70
2018-12-30T21:28:05.061Z,13.10
2018-12-30T21:30:33.392Z,8.53
2018-12-30T21:33:00.883Z,10.53
2018-12-30T21:35:29.741Z,13.43
2018-12-30T21:37:57.264Z,13.97
2018-12-30T21:40:25.096Z,12.50
2018-12-30T21:42:52.601Z,9.57
2018-12-30T21:45:20.088Z,15.77
2018-12-30T21:47:47.715Z,13.27
2018-12-30T21:50:15.276Z,13.70
2018-12-30T21:52:42.833Z,16.67
2018-12-30T21:55:10.266Z,18.27
2018-12-30T21:57:37.695Z,12.30
2018-12-30T22:00:06.720Z,11.37
2018-12-30T22:02:34.230Z,16.73
2018-12-30T22:05:03.290Z,25.77
2018-12-30T22:07:33.667Z,21.23
2018-12-30T22:10:03.354Z,16.57
2018-12-30T22:12:30.742Z,10.03
2018-12-30T22:14:58.298Z,11.13
2018-12-30T22:17:26.834Z,15.27
2018-12-30T22:19:54.474Z,10.83
2018-12-30T22:22:21.995Z,11.70
2018-12-30T22:24:49.527Z,14.23
2018-12-30T22:27:18.382Z,12.40
2018-12-30T22:29:46.105Z,14.57
2018-12-30T22:32:13.692Z,11.63
2018-12-30T22:34:41.226Z,10.97
2018-12-30T22:37:08.784Z,11.03
2018-12-30T22:39:36.246Z,10.67
2018-12-30T22:42:03.785Z,8.73
2018-12-30T22:44:31.701Z,6.50
2018-12-30T22:46:59.201Z,7.73
2018-12-30T22:49:26.693Z,9.57
2018-12-30T22:51:54.266Z,6.47
2018-12-30T22:54:21.749Z,6.40
2018-12-30T22:56:49.258Z,7.07
2018-12-30T22:59:16.820Z,6.07
2018-12-30T23:01:44.902Z,6.57
2018-12-30T23:04:12.404Z,7.93
2018-12-30T23:06:40.737Z,7.63
2018-12-30T23:09:08.319Z,6.67
2018-12-30T23:11:36.035Z,9.00
2018-12-30T23:14:04.140Z,12.10
2018-12-30T23:16:31.871Z,9.93
2018-12-30T23:18:59.373Z,13.03
2018-12-30T23:21:27.631Z,9.10
2018-12-30T23:23:55.608Z,7.83
2018-12-30T23:26:23.650Z,7.23
2018-12-30T23:28:51.123Z,11.73
2018-12-30T23:31:18.629Z,8.23
2018-12-30T23:33:46.107Z,6.17
2018-12-30T23:36:13.648Z,4.37
2018-12-30T23:38:41.129Z,6.80
2018-12-30T23:41:08.534Z,3.87
2018-12-30T23:43:36.075Z,5.13
2018-12-30T23:46:03.646Z,2.77
2018-12-30T23:48:31.198Z,4.37
2018-12-30T23:50:58.763Z,6.03
2018-12-30T23:53:28.840Z,5.33
2018-12-30T23:55:56.255Z,3.67
2018-12-30T23:58:23.739Z,4.37
